Time;durP1;ratioP1;P1;durP2;ratioP2;P2;SDS_P1;SDS_P2;PMS_P1;PMS_P2;Temp;Humidity;BMP_temperature;BMP_pressure;BME280_temperature;BME280_humidity;BME280_pressure;Samples;Min_cycle;Max_cycle;Signal;HPM_P1;HPM_P2
2022/12/24 00:01:18;;;;;;;7.65;4.88;;;;;;;0.08;84.30;96245.63;5135885;27;20126;-63
2022/12/24 00:03:45;;;;;;;6.47;4.47;;;;;;;0.15;84.35;96247.34;5135960;27;20043;-60
2022/12/24 00:06:17;;;;;;;7.40;5.05;;;;;;;0.12;83.95;96250.78;5135704;27;20074;-63
2022/12/24 00:08:44;;;;;;;6.68;4.50;;;;;;;0.03;84.04;96253.34;5135605;27;20590;-60
2022/12/24 00:11:12;;;;;;;7.05;4.32;;;;;;;0.04;84.93;96249.06;5135614;27;20477;-62
2022/12/24 00:13:40;;;;;;;6.35;4.30;;;;;;;-0.01;84.74;96252.50;5135541;27;20051;-65
2022/12/24 00:16:08;;;;;;;6.38;4.30;;;;;;;0.00;85.66;96258.53;5135564;27;20057;-63
2022/12/24 00:18:35;;;;;;;7.82;5.85;;;;;;;0.05;85.90;96255.91;5135598;27;20043;-63
2022/12/24 00:21:02;;;;;;;10.90;5.40;;;;;;;0.09;86.29;96253.34;5135360;27;20557;-61
2022/12/24 00:23:30;;;;;;;9.52;6.25;;;;;;;0.13;86.01;96259.38;5135397;27;20090;-63
2022/12/24 00:25:57;;;;;;;11.95;6.70;;;;;;;0.21;85.63;96260.19;5135275;27;20055;-61
2022/12/24 00:28:25;;;;;;;8.63;4.60;;;;;;;0.15;85.53;96262.78;5135139;27;20051;-62
2022/12/24 00:30:52;;;;;;;5.40;3.85;;;;;;;0.05;85.12;96251.66;5135145;27;20043;-65
2022/12/24 00:33:21;;;;;;;5.32;4.18;;;;;;;0.05;85.34;96259.38;5135112;27;20059;-62
2022/12/24 00:35:51;;;;;;;6.43;4.78;;;;;;;0.03;86.07;96266.22;5135124;27;20058;-60
2022/12/24 00:38:19;;;;;;;10.90;6.00;;;;;;;0.09;86.98;96271.34;5135200;27;20481;-61
2022/12/24 00:40:46;;;;;;;6.78;4.53;;;;;;;0.08;86.64;96267.06;5134991;27;20039;-63
2022/12/24 00:43:13;;;;;;;6.28;4.30;;;;;;;0.00;86.85;96266.25;5134707;27;20099;-63
2022/12/24 00:45:40;;;;;;;5.30;3.92;;;;;;;-0.01;86.39;96270.53;5134940;27;20492;-65
2022/12/24 00:48:07;;;;;;;7.30;4.10;;;;;;;-0.11;86.52;96273.09;5134882;27;20047;-65
2022/12/24 00:50:36;;;;;;;5.60;4.40;;;;;;;-0.20;87.24;96268.81;5134820;27;20043;-63
2022/12/24 00:53:03;;;;;;;6.53;4.55;;;;;;;-0.23;87.81;96274.81;5134728;27;20102;-62
2022/12/24 00:55:30;;;;;;;5.68;3.70;;;;;;;-0.26;88.07;96277.38;5134039;27;20043;-62
2022/12/24 00:57:57;;;;;;;5.80;3.92;;;;;;;-0.22;87.59;96275.63;5134742;27;20047;-62
2022/12/24 01:00:29;;;;;;;5.85;4.00;;;;;;;-0.22;87.19;96270.50;5134711;27;20043;-61
2022/12/24 01:02:56;;;;;;;6.05;3.83;;;;;;;-0.24;87.51;96272.22;5134592;27;20047;-62
2022/12/24 01:05:23;;;;;;;6.60;4.13;;;;;;;-0.27;87.80;96271.34;5134543;27;20583;-65
2022/12/24 01:07:52;;;;;;;6.35;4.35;;;;;;;-0.23;87.72;96263.66;5134483;27;20142;-62
2022/12/24 01:10:20;;;;;;;6.28;3.88;;;;;;;-0.18;88.04;96269.66;5134609;27;20043;-62
2022/12/24 01:12:48;;;;;;;6.50;3.97;;;;;;;-0.20;88.21;96263.66;5134481;27;20079;-62
2022/12/24 01:15:16;;;;;;;6.20;4.20;;;;;;;-0.10;88.04;96249.94;5134526;27;20043;-64
2022/12/24 01:17:43;;;;;;;6.18;4.00;;;;;;;-0.11;87.36;96244.78;5134459;27;20051;-64
2022/12/24 01:20:14;;;;;;;5.35;3.88;;;;;;;-0.15;87.36;96238.81;5134450;27;20096;-65
2022/12/24 01:22:42;;;;;;;6.25;4.03;;;;;;;-0.13;87.69;96235.38;5134323;27;20043;-62
2022/12/24 01:25:11;;;;;;;4.60;3.72;;;;;;;-0.12;87.39;96228.50;5134208;27;20446;-65
2022/12/24 01:27:38;;;;;;;9.63;4.00;;;;;;;-0.13;87.46;96225.09;5134171;27;20047;-62
2022/12/24 01:30:07;;;;;;;7.88;4.15;;;;;;;-0.13;88.21;96222.50;5134137;27;20081;-66
2022/12/24 01:32:35;;;;;;;10.55;5.95;;;;;;;-0.11;87.86;96222.50;5134215;27;20118;-64
2022/12/24 01:35:02;;;;;;;7.43;4.35;;;;;;;-0.03;87.84;96223.34;5134166;27;20044;-64
2022/12/24 01:37:29;;;;;;;5.75;4.25;;;;;;;0.01;87.94;96219.06;5134157;27;20047;-62
2022/12/24 01:43:22;;;;;;;8.10;5.35;;;;;;;0.05;87.70;96225.06;5134046;27;20051;-63
2022/12/24 01:45:43;;;;;;;10.38;7.03;;;;;;;0.11;87.91;96214.75;5134157;28;20416;-62
2022/12/24 01:48:30;;;;;;;11.82;7.00;;;;;;;0.17;86.57;96229.31;5134001;28;20047;-66
2022/12/24 01:51:02;;;;;;;13.70;5.60;;;;;;;0.18;86.05;96225.91;5133905;28;20065;-66
2022/12/24 01:53:31;;;;;;;10.95;7.45;;;;;;;0.13;85.67;96228.50;5133926;28;20045;-65
2022/12/24 01:55:59;;;;;;;7.43;4.95;;;;;;;0.09;87.01;96216.50;5133863;28;20089;-65
2022/12/24 01:58:28;;;;;;;10.68;5.60;;;;;;;0.13;87.08;96213.06;5133885;28;20043;-65
2022/12/24 02:00:55;;;;;;;6.50;4.30;;;;;;;0.10;86.95;96219.06;5133777;28;20043;-66
2022/12/24 02:03:23;;;;;;;4.93;3.53;;;;;;;0.06;86.82;96226.78;5133818;28;20043;-64
2022/12/24 02:05:52;;;;;;;6.40;4.35;;;;;;;-0.08;87.64;96226.78;5133830;27;20378;-61
2022/12/24 02:08:22;;;;;;;5.75;3.85;;;;;;;-0.15;87.50;96223.38;5136786;27;20051;-63
2022/12/24 02:10:50;;;;;;;6.30;4.18;;;;;;;-0.20;87.97;96218.25;5137914;27;20051;-65
2022/12/24 02:13:21;;;;;;;6.07;3.55;;;;;;;-0.13;87.34;96217.38;5137917;27;20051;-64
2022/12/24 02:15:58;;;;;;;;;;;;;;;-0.08;87.27;96214.81;5138180;27;20043;-64
2022/12/24 02:18:34;;;;;;;8.27;3.72;;;;;;;-0.13;88.09;96219.94;5138022;27;19945;-62
2022/12/24 02:21:45;;;;;;;6.03;3.80;;;;;;;-0.23;88.30;96220.81;5137770;27;20050;-66
2022/12/24 02:24:59;;;;;;;5.00;3.88;;;;;;;-0.29;89.15;96221.69;5137724;27;20133;-65
2022/12/24 02:27:38;;;;;;;8.32;4.28;;;;;;;-0.16;90.20;96226.78;5137568;27;20053;-62
2022/12/24 02:30:17;;;;;;;8.15;5.50;;;;;;;-0.10;89.59;96229.38;5137597;27;20069;-65
2022/12/24 02:32:57;;;;;;;5.35;3.95;;;;;;;-0.03;89.66;96222.50;5137531;27;20051;-66
2022/12/24 02:35:33;;;;;;;6.80;3.95;;;;;;;-0.09;89.28;96223.34;5137427;27;20392;-63
2022/12/24 02:38:05;;;;;;;5.40;3.97;;;;;;;-0.14;89.68;96227.66;5137344;27;20070;-66
2022/12/24 02:40:39;;;;;;;5.22;3.80;;;;;;;-0.03;89.15;96223.34;5137593;27;20077;-63
2022/12/24 02:43:10;;;;;;;6.63;4.15;;;;;;;0.01;88.60;96220.78;5137129;27;20071;-64
2022/12/24 02:45:43;;;;;;;7.03;4.68;;;;;;;-0.05;88.47;96222.50;5137203;27;20047;-63
2022/12/24 02:48:15;;;;;;;4.40;3.42;;;;;;;0.01;88.77;96229.38;5137238;27;20051;-66
2022/12/24 02:50:55;;;;;;;6.13;3.90;;;;;;;0.01;87.15;96223.34;5137178;27;20043;-67
2022/12/24 02:53:22;;;;;;;6.18;4.28;;;;;;;-0.02;86.74;96219.94;5137540;27;20044;-66
2022/12/24 02:56:03;;;;;;;8.63;5.22;;;;;;;-0.05;86.91;96222.50;5137051;27;20049;-63
2022/12/24 02:58:43;;;;;;;7.28;4.60;;;;;;;-0.02;86.91;96226.78;5137171;27;20042;-65
2022/12/24 03:01:18;;;;;;;7.53;4.35;;;;;;;-0.05;86.77;96235.38;5136943;27;20043;-65
2022/12/24 03:04:01;;;;;;;7.85;3.78;;;;;;;-0.21;87.14;96225.94;5136846;27;20097;-65
2022/12/24 03:06:39;;;;;;;5.15;3.78;;;;;;;-0.37;88.20;96231.09;5136884;27;20404;-62
2022/12/24 03:09:14;;;;;;;5.82;3.90;;;;;;;-0.36;88.96;96237.94;5137105;27;20049;-62
2022/12/24 03:11:49;;;;;;;5.03;3.88;;;;;;;-0.38;88.99;96244.81;5136721;27;20059;-64
2022/12/24 03:14:18;;;;;;;7.15;4.03;;;;;;;-0.45;88.43;96235.38;5136885;27;20069;-64
2022/12/24 03:16:47;;;;;;;5.38;3.80;;;;;;;-0.54;88.40;96233.66;5136586;27;20054;-67
2022/12/24 03:19:14;;;;;;;5.97;3.78;;;;;;;-0.45;88.61;96237.94;5136501;27;20077;-62
2022/12/24 03:21:43;;;;;;;4.32;3.80;;;;;;;-0.44;88.11;96235.38;5136526;27;20082;-65
2022/12/24 03:24:10;;;;;;;7.05;3.72;;;;;;;-0.43;87.84;96231.94;5136443;27;20047;-67
2022/12/24 03:26:40;;;;;;;4.63;3.47;;;;;;;-0.52;87.87;96232.78;5136612;27;20083;-63
2022/12/24 03:29:08;;;;;;;5.53;4.03;;;;;;;-0.48;88.49;96235.38;5136446;27;20416;-64
2022/12/24 03:31:47;;;;;;;4.93;3.55;;;;;;;-0.47;88.35;96234.50;5136358;27;20043;-65
2022/12/24 03:34:15;;;;;;;6.30;4.28;;;;;;;-0.45;88.10;96245.66;5136440;27;20047;-62
2022/12/24 03:36:43;;;;;;;5.00;3.42;;;;;;;-0.41;87.84;96243.09;5136180;27;20527;-62
2022/12/24 03:39:10;;;;;;;13.90;6.03;;;;;;;-0.43;88.04;96244.78;5136201;27;20129;-61
2022/12/24 03:41:38;;;;;;;8.52;5.65;;;;;;;-0.35;87.96;96247.38;5136179;27;20082;-61
2022/12/24 03:44:05;;;;;;;12.77;6.65;;;;;;;-0.33;87.86;96244.81;5136002;27;20467;-64
2022/12/24 03:46:32;;;;;;;7.95;4.72;;;;;;;-0.35;88.28;96242.22;5136016;27;20572;-64
2022/12/24 03:49:01;;;;;;;10.25;6.57;;;;;;;-0.35;87.69;96241.38;5136245;27;20135;-62
2022/12/24 03:51:28;;;;;;;16.00;9.05;;;;;;;-0.36;87.86;96237.94;5136329;27;20122;-63
2022/12/24 03:53:57;;;;;;;6.68;4.90;;;;;;;-0.37;87.90;96230.25;5135931;27;20054;-64
2022/12/24 03:56:25;;;;;;;7.80;4.88;;;;;;;-0.40;87.69;96237.09;5135958;27;20047;-62
2022/12/24 03:58:52;;;;;;;6.40;3.90;;;;;;;-0.41;87.24;96234.50;5135953;27;20051;-62
2022/12/24 04:01:19;;;;;;;9.50;5.57;;;;;;;-0.47;88.13;96234.50;5135752;27;20074;-61
2022/12/24 04:03:46;;;;;;;10.18;5.72;;;;;;;-0.45;88.90;96228.50;5135698;27;20096;-62
2022/12/24 04:06:17;;;;;;;8.40;4.35;;;;;;;-0.36;88.98;96219.94;5135920;27;20051;-63
2022/12/24 04:08:44;;;;;;;9.85;5.25;;;;;;;-0.33;88.88;96221.66;5135889;27;20039;-62
2022/12/24 04:11:14;;;;;;;8.35;5.40;;;;;;;-0.23;88.94;96231.09;5135690;27;20039;-66
2022/12/24 04:13:41;;;;;;;11.48;6.65;;;;;;;-0.16;88.92;96227.66;5135527;27;20044;-62
2022/12/24 04:16:10;;;;;;;14.77;7.65;;;;;;;-0.13;88.29;96231.94;5135600;27;20044;-61
2022/12/24 04:18:39;;;;;;;9.95;5.40;;;;;;;-0.14;87.86;96233.66;5135313;27;20096;-62
2022/12/24 04:21:07;;;;;;;9.68;5.95;;;;;;;-0.23;88.15;96237.94;5135437;27;20054;-64
2022/12/24 04:23:38;;;;;;;12.95;7.18;;;;;;;-0.22;88.33;96230.22;5135264;27;20051;-60
2022/12/24 04:26:07;;;;;;;6.45;4.60;;;;;;;-0.29;88.04;96231.97;5135270;27;20043;-63
2022/12/24 04:28:35;;;;;;;8.40;5.03;;;;;;;-0.26;87.73;96236.25;5135191;27;20443;-61
2022/12/24 04:31:03;;;;;;;11.85;5.63;;;;;;;-0.37;87.80;96222.53;5134464;27;20050;-62
2022/12/24 04:33:30;;;;;;;6.65;4.03;;;;;;;-0.43;87.42;96224.22;5135102;27;20085;-61
2022/12/24 04:35:58;;;;;;;6.30;4.40;;;;;;;-0.46;87.80;96226.78;5135221;27;20069;-64
2022/12/24 04:38:25;;;;;;;5.93;4.35;;;;;;;-0.54;88.17;96226.78;5135181;27;20446;-64
2022/12/24 04:41:00;;;;;;;5.38;3.55;;;;;;;-0.61;89.55;96222.50;5134976;27;20050;-63
2022/12/24 04:43:28;;;;;;;5.28;4.10;;;;;;;-0.57;89.90;96220.81;5134639;27;20100;-64
2022/12/24 04:45:55;;;;;;;6.32;4.55;;;;;;;-0.53;89.61;96219.94;5135019;27;20043;-64
2022/12/24 04:48:23;;;;;;;7.30;4.85;;;;;;;-0.58;90.31;96227.66;5135017;27;20481;-61
2022/12/24 04:50:50;;;;;;;7.40;4.80;;;;;;;-0.53;91.02;96220.81;5134805;27;20511;-63
2022/12/24 04:53:17;;;;;;;6.95;5.20;;;;;;;-0.44;90.76;96231.94;5134669;27;20166;-62
2022/12/24 04:55:45;;;;;;;6.80;4.70;;;;;;;-0.39;90.64;96231.09;5134707;27;20047;-67
2022/12/24 04:58:14;;;;;;;8.77;5.97;;;;;;;-0.33;89.67;96227.66;5134546;27;20047;-64
2022/12/24 05:00:41;;;;;;;7.35;4.88;;;;;;;-0.32;89.72;96229.38;5134546;27;20051;-64
2022/12/24 05:03:08;;;;;;;6.55;4.30;;;;;;;-0.30;89.21;96231.97;5134624;27;20563;-62
2022/12/24 05:05:36;;;;;;;5.90;4.25;;;;;;;-0.34;89.33;96233.66;5134586;27;20043;-62
2022/12/24 05:08:03;;;;;;;7.22;4.57;;;;;;;-0.41;89.24;96240.53;5134600;27;20051;-62
2022/12/24 05:10:30;;;;;;;6.22;4.57;;;;;;;-0.47;89.54;96234.50;5134481;27;20100;-63
2022/12/24 05:12:57;;;;;;;7.53;4.55;;;;;;;-0.46;89.63;96241.34;5134433;27;20051;-61
2022/12/24 05:15:26;;;;;;;6.28;4.25;;;;;;;-0.41;89.30;96235.38;5134657;27;20055;-64
2022/12/24 05:17:53;;;;;;;5.57;3.90;;;;;;;-0.52;88.48;96230.22;5134338;27;20089;-61
2022/12/24 05:20:20;;;;;;;5.53;4.15;;;;;;;-0.52;88.38;96231.94;5134367;27;20506;-63
2022/12/24 05:28:22;;;;;;;8.98;4.65;;;;;;;-0.51;89.27;96236.22;5134355;27;20050;-63
2022/12/24 05:30:50;;;;;;;6.05;4.20;;;;;;;-0.55;88.77;96234.50;5134040;27;20047;-63
2022/12/24 05:33:18;;;;;;;4.78;4.20;;;;;;;-0.55;89.03;96229.34;5134222;27;20058;-63
2022/12/24 05:35:45;;;;;;;8.65;5.20;;;;;;;-0.52;88.30;96232.78;5134166;27;20054;-60
2022/12/24 05:38:12;;;;;;;6.03;4.28;;;;;;;-0.64;88.68;96235.34;5134020;27;20051;-60
2022/12/24 05:40:40;;;;;;;5.65;4.22;;;;;;;-0.66;89.53;96234.50;5133822;27;20130;-65
2022/12/24 05:43:07;;;;;;;11.52;5.40;;;;;;;-0.61;89.78;96232.78;5133887;28;20423;-64
2022/12/24 05:45:34;;;;;;;8.38;5.13;;;;;;;-0.60;90.12;96239.63;5133958;28;20104;-64
2022/12/24 05:48:05;;;;;;;7.20;4.72;;;;;;;-0.63;90.22;96239.66;5133994;28;20142;-65
2022/12/24 05:50:33;;;;;;;6.70;4.13;;;;;;;-0.58;89.97;96240.50;5133971;28;20050;-60
2022/12/24 05:53:00;;;;;;;7.97;4.45;;;;;;;-0.51;90.06;96249.09;5134007;28;20047;-62
2022/12/24 05:55:28;;;;;;;7.78;4.43;;;;;;;-0.44;90.29;96242.22;5133988;28;20051;-63
2022/12/24 05:57:55;;;;;;;8.52;5.07;;;;;;;-0.39;90.36;96245.66;5133816;28;20138;-62
2022/12/24 06:00:23;;;;;;;12.40;6.53;;;;;;;-0.25;90.86;96253.38;5134029;28;20050;-64
2022/12/24 06:02:50;;;;;;;16.27;8.13;;;;;;;-0.15;90.37;96259.38;5134013;28;20043;-61
2022/12/24 06:05:19;;;;;;;15.05;8.05;;;;;;;-0.02;90.15;96261.09;5133705;28;20055;-60
2022/12/24 06:07:47;;;;;;;15.38;7.30;;;;;;;0.08;89.42;96267.06;5133804;28;20163;-63
2022/12/24 06:10:14;;;;;;;9.40;7.00;;;;;;;0.13;89.02;96269.66;5133851;28;20043;-63
2022/12/24 06:12:41;;;;;;;12.70;7.57;;;;;;;0.15;88.80;96267.91;5133834;28;20057;-66
2022/12/24 06:15:11;;;;;;;11.48;7.32;;;;;;;0.25;88.72;96279.91;5133797;28;20047;-63
2022/12/24 06:17:38;;;;;;;11.98;7.25;;;;;;;0.23;87.74;96273.06;5133366;28;20054;-63
2022/12/24 06:20:07;;;;;;;9.35;5.95;;;;;;;0.16;87.52;96284.22;5133803;28;20043;-61
2022/12/24 06:22:36;;;;;;;6.60;4.88;;;;;;;0.19;87.37;96276.50;5133705;28;20047;-60
2022/12/24 06:25:05;;;;;;;7.78;4.40;;;;;;;0.34;87.62;96276.50;5133525;28;20397;-64
2022/12/24 06:27:33;;;;;;;5.35;3.95;;;;;;;0.59;87.66;96281.59;5133525;28;20056;-64
2022/12/24 06:30:00;;;;;;;8.18;4.25;;;;;;;0.92;86.55;96285.75;5133578;28;20047;-64
2022/12/24 06:32:28;;;;;;;5.97;3.85;;;;;;;1.86;85.75;96291.25;5133658;28;20053;-63
2022/12/24 06:34:55;;;;;;;4.47;3.05;;;;;;;3.05;79.89;96279.78;5133592;28;20048;-64
2022/12/24 06:37:22;;;;;;;3.20;2.65;;;;;;;4.37;75.55;96279.59;5133615;28;20062;-62
2022/12/24 06:39:52;;;;;;;3.95;2.53;;;;;;;5.78;68.98;96280.25;5133738;28;20039;-65
2022/12/24 06:42:20;;;;;;;2.40;2.20;;;;;;;7.00;64.02;96261.63;5133851;28;20597;-65
2022/12/24 06:44:48;;;;;;;2.58;2.03;;;;;;;8.42;60.48;96259.88;5133535;28;20043;-64
2022/12/24 06:47:16;;;;;;;2.72;2.25;;;;;;;9.64;55.69;96266.91;5133528;28;20054;-62
2022/12/24 06:52:45;;;;;;;2.92;2.50;;;;;;;12.91;49.27;96248.00;5092365;27;20465;-64
2022/12/24 06:55:17;;;;;;;2.35;2.15;;;;;;;14.14;44.27;96254.56;5137076;27;20473;-66
2022/12/24 06:57:45;;;;;;;2.55;2.35;;;;;;;15.18;39.82;96256.50;5137093;27;20062;-65
2022/12/24 07:00:14;;;;;;;2.03;1.83;;;;;;;15.91;38.56;96257.25;5137360;27;20467;-62
2022/12/24 07:02:45;;;;;;;3.35;1.90;;;;;;;16.76;36.83;96256.16;5136561;27;20047;-64
2022/12/24 07:05:14;;;;;;;2.30;2.10;;;;;;;17.49;35.52;96262.75;5136902;27;20081;-65
2022/12/24 07:07:43;;;;;;;3.47;2.05;;;;;;;18.10;35.14;96261.06;5136741;27;20393;-67
2022/12/24 07:10:14;;;;;;;2.40;2.20;;;;;;;18.99;33.99;96252.75;5136764;27;20043;-64
2022/12/24 07:12:41;;;;;;;1.65;1.52;;;;;;;19.66;31.76;96249.44;5136772;27;20131;-64
2022/12/24 07:15:11;;;;;;;3.38;2.95;;;;;;;20.18;31.59;96251.50;5136796;27;20057;-63
2022/12/24 07:17:45;;;;;;;2.58;2.38;;;;;;;20.70;30.56;96262.28;5136609;27;20047;-61
2022/12/24 07:20:15;;;;;;;2.20;2.00;;;;;;;21.20;30.16;96267.94;5136545;27;20043;-64
2022/12/24 07:22:43;;;;;;;3.63;1.98;;;;;;;21.83;29.70;96266.13;5136483;27;20047;-65
2022/12/24 07:25:11;;;;;;;3.03;2.55;;;;;;;22.25;28.63;96274.91;5136215;27;20051;-66
2022/12/24 07:27:43;;;;;;;3.38;2.85;;;;;;;22.55;28.01;96265.94;5136380;27;20413;-63
2022/12/24 07:30:13;;;;;;;2.58;1.65;;;;;;;22.76;28.18;96264.16;5136351;27;20043;-66
2022/12/24 07:32:45;;;;;;;1.98;1.80;;;;;;;23.09;27.68;96257.47;5135451;27;20043;-63
2022/12/24 07:35:13;;;;;;;2.92;2.67;;;;;;;23.29;27.62;96261.91;5136324;27;20055;-66
2022/12/24 07:37:40;;;;;;;2.60;2.10;;;;;;;23.45;27.40;96256.84;5136103;27;20096;-65
2022/12/24 07:40:09;;;;;;;2.85;1.88;;;;;;;23.51;26.97;96263.41;5136156;27;20047;-66
2022/12/24 07:42:39;;;;;;;2.08;1.88;;;;;;;23.32;27.09;96261.63;5136080;27;20053;-65
2022/12/24 07:45:09;;;;;;;3.15;1.80;;;;;;;23.69;26.75;96254.66;5136061;27;20105;-67
2022/12/24 07:47:41;;;;;;;2.10;1.80;;;;;;;24.12;26.53;96249.63;5136208;27;20415;-65
2022/12/24 07:50:13;;;;;;;1.85;1.70;;;;;;;24.41;26.74;96266.47;5135927;27;20043;-66
2022/12/24 07:52:40;;;;;;;1.92;1.70;;;;;;;24.54;26.23;96266.09;5135993;27;20043;-66
2022/12/24 07:55:08;;;;;;;2.40;1.90;;;;;;;24.38;26.50;96272.13;5135979;27;20534;-65
2022/12/24 07:57:36;;;;;;;2.15;1.95;;;;;;;24.41;26.58;96283.34;5135775;27;20085;-65
2022/12/24 08:00:08;;;;;;;2.38;2.15;;;;;;;24.61;25.92;96281.38;5135985;27;20122;-65
2022/12/24 08:02:38;;;;;;;3.25;2.60;;;;;;;24.70;26.04;96270.72;5135713;27;20039;-65
2022/12/24 08:05:07;;;;;;;3.47;3.00;;;;;;;25.08;25.36;96278.59;5135551;27;20088;-65
2022/12/24 08:07:34;;;;;;;3.65;3.35;;;;;;;25.21;25.26;96278.16;5135654;27;20580;-65
2022/12/24 08:10:02;;;;;;;4.22;3.83;;;;;;;25.69;24.69;96288.50;5135656;27;20122;-67
2022/12/24 08:12:29;;;;;;;3.95;3.38;;;;;;;26.17;23.88;96286.19;5135871;27;20054;-63
2022/12/24 08:15:07;;;;;;;4.32;3.78;;;;;;;26.64;23.30;96286.63;5135490;27;20050;-63
2022/12/24 08:17:34;;;;;;;5.20;3.75;;;;;;;26.78;22.67;96290.47;5135421;27;20047;-63
2022/12/24 08:20:04;;;;;;;3.78;3.47;;;;;;;27.20;22.50;96279.75;5135517;27;20043;-64
2022/12/24 08:22:45;;;;;;;14.15;10.88;;;;;;;27.55;21.88;96275.00;5135145;27;20054;-67
2022/12/24 08:25:13;;;;;;;10.07;7.50;;;;;;;27.41;21.41;96279.22;5135353;27;20470;-64
2022/12/24 08:27:43;;;;;;;8.35;5.60;;;;;;;26.27;22.44;96282.53;5135198;27;20405;-64
2022/12/24 08:30:12;;;;;;;4.75;4.15;;;;;;;26.40;22.69;96282.91;5135204;27;20047;-65
2022/12/24 08:32:43;;;;;;;4.15;3.75;;;;;;;26.40;22.43;96271.34;5135074;27;20047;-67
2022/12/24 08:35:13;;;;;;;4.95;4.38;;;;;;;26.05;22.83;96274.06;5135130;27;20054;-63
2022/12/24 08:37:40;;;;;;;3.78;3.38;;;;;;;25.52;23.78;96263.47;5135002;27;20047;-66
2022/12/24 08:40:14;;;;;;;3.60;2.90;;;;;;;24.33;25.27;96268.09;5135184;27;20047;-62
2022/12/24 08:42:41;;;;;;;3.95;3.25;;;;;;;23.51;26.89;96262.59;5135010;27;20043;-66
2022/12/24 08:45:10;;;;;;;3.78;2.88;;;;;;;22.85;26.86;96260.63;5134688;27;20090;-64
2022/12/24 08:47:38;;;;;;;3.95;2.95;;;;;;;22.20;28.34;96265.50;5134888;27;20047;-65
2022/12/24 08:50:12;;;;;;;3.63;3.25;;;;;;;21.49;29.36;96259.25;5134868;27;20047;-64
2022/12/24 08:52:40;;;;;;;2.88;2.58;;;;;;;20.75;30.63;96253.09;5134676;27;20126;-61
2022/12/24 08:55:11;;;;;;;3.58;2.92;;;;;;;19.79;31.62;96250.13;5134775;27;20079;-65
2022/12/24 08:57:44;;;;;;;3.45;3.05;;;;;;;19.41;31.92;96244.25;5134563;27;20043;-65
2022/12/24 09:00:15;;;;;;;3.42;2.80;;;;;;;19.29;33.49;96242.56;5134579;27;20142;-63
2022/12/24 09:02:43;;;;;;;3.20;2.67;;;;;;;18.98;34.33;96243.13;5134633;27;20044;-62
2022/12/24 09:05:14;;;;;;;3.15;2.78;;;;;;;18.39;34.91;96243.06;5134599;27;20082;-67
2022/12/24 09:07:42;;;;;;;5.28;3.17;;;;;;;17.74;36.05;96243.31;5134572;27;20500;-65
2022/12/24 09:10:10;;;;;;;3.42;2.83;;;;;;;17.18;35.86;96245.44;5134608;27;20100;-61
2022/12/24 09:12:38;;;;;;;3.83;3.15;;;;;;;16.45;37.60;96236.25;5134552;27;20075;-66
2022/12/24 09:15:08;;;;;;;4.30;3.30;;;;;;;15.92;38.59;96240.47;5134572;27;20047;-64
2022/12/24 09:17:36;;;;;;;4.53;2.97;;;;;;;15.56;39.86;96241.91;5133943;27;20382;-63
2022/12/24 09:20:04;;;;;;;3.55;3.25;;;;;;;15.28;41.06;96241.81;5134322;27;20386;-66
2022/12/24 09:22:34;;;;;;;3.15;2.85;;;;;;;15.08;42.64;96238.63;5134406;27;20051;-62
2022/12/24 09:25:03;;;;;;;4.25;3.22;;;;;;;14.99;43.27;96242.66;5134230;27;20039;-63
2022/12/24 09:27:31;;;;;;;4.53;3.25;;;;;;;14.86;43.21;96245.22;5134491;27;20047;-62
2022/12/24 09:29:58;;;;;;;3.83;2.90;;;;;;;14.78;43.76;96242.19;5134344;27;20579;-63
2022/12/24 09:32:26;;;;;;;3.70;3.20;;;;;;;14.38;44.64;96240.09;5134181;27;20050;-64
2022/12/24 09:34:54;;;;;;;3.60;2.80;;;;;;;14.27;45.53;96238.94;5134212;27;20062;-66
2022/12/24 09:37:22;;;;;;;4.28;3.25;;;;;;;14.10;45.48;96241.69;5134091;27;20051;-64
2022/12/24 09:39:52;;;;;;;3.97;3.10;;;;;;;14.19;45.71;96238.53;5134084;27;20497;-64
2022/12/24 09:42:27;;;;;;;3.10;2.73;;;;;;;14.15;44.79;96240.47;5133978;27;20047;-65
2022/12/24 09:45:01;;;;;;;3.65;2.63;;;;;;;13.98;44.26;96235.34;5133670;27;20100;-62
2022/12/24 09:47:38;;;;;;;3.20;2.63;;;;;;;13.81;44.50;96241.56;5134078;28;20043;-65
2022/12/24 09:50:25;;;;;;;3.03;2.60;;;;;;;13.71;45.53;96249.94;5133959;28;20142;-63
2022/12/24 09:52:53;;;;;;;4.50;2.83;;;;;;;13.49;46.21;96234.50;5134003;28;20107;-64
2022/12/24 09:55:28;;;;;;;2.70;2.50;;;;;;;13.34;46.35;96234.38;5134183;28;20047;-65
2022/12/24 09:57:58;;;;;;;3.78;2.90;;;;;;;13.33;46.96;96240.56;5134103;28;20489;-66
2022/12/24 10:00:28;;;;;;;3.17;2.38;;;;;;;13.29;46.79;96228.53;5133937;28;20078;-63
2022/12/24 10:02:57;;;;;;;2.78;2.58;;;;;;;13.21;47.30;96228.94;5133820;28;20050;-62
2022/12/24 10:05:38;;;;;;;3.47;2.42;;;;;;;13.30;46.72;96226.75;5133893;28;20044;-62
2022/12/24 10:08:15;;;;;;;3.10;2.80;;;;;;;13.38;46.06;96222.78;5134054;28;20080;-63
2022/12/24 10:10:52;;;;;;;3.13;2.38;;;;;;;13.46;45.67;96221.53;5133756;28;20057;-65
2022/12/24 10:13:30;;;;;;;3.35;2.40;;;;;;;13.47;45.95;96224.06;5133733;28;20051;-62
2022/12/24 10:16:02;;;;;;;2.97;2.10;;;;;;;13.41;45.58;96221.75;5133790;28;20055;-64
2022/12/24 10:18:36;;;;;;;2.25;2.05;;;;;;;13.49;45.69;96221.34;5133566;28;20044;-61
2022/12/24 10:21:12;;;;;;;3.05;2.38;;;;;;;13.52;45.06;96223.84;5133697;28;20051;-64
2022/12/24 10:23:46;;;;;;;2.90;2.20;;;;;;;13.64;45.05;96227.56;5133667;28;20043;-64
2022/12/24 10:26:24;;;;;;;3.75;2.88;;;;;;;13.71;44.26;96226.28;5133871;28;20044;-65
2022/12/24 10:28:57;;;;;;;5.78;2.90;;;;;;;13.65;45.57;96218.75;5135636;27;20488;-61
2022/12/24 10:31:33;;;;;;;6.03;2.67;;;;;;;13.77;44.96;96227.72;5137640;27;20047;-61
2022/12/24 10:34:12;;;;;;;27.15;14.43;;;;;;;13.86;44.25;96227.22;5137318;27;20048;-63
2022/12/24 10:36:41;;;;;;;6.88;4.65;;;;;;;13.85;45.21;96235.19;5137526;27;20058;-65
2022/12/24 10:39:22;;;;;;;2.63;2.08;;;;;;;13.79;44.40;96225.88;5137454;27;20043;-64
2022/12/24 10:41:51;;;;;;;;;;;;;;;13.73;44.56;96215.69;5137861;27;20039;-65
2022/12/24 10:44:28;;;;;;;3.20;2.13;;;;;;;13.67;44.48;96216.03;5137205;27;20334;-61
2022/12/24 10:46:55;;;;;;;2.80;2.00;;;;;;;13.66;44.36;96211.72;5137010;27;20055;-65
2022/12/24 10:49:36;;;;;;;2.38;2.00;;;;;;;13.68;44.54;96218.59;5137248;27;20043;-64
2022/12/24 10:52:12;;;;;;;2.67;2.42;;;;;;;13.70;44.50;96211.44;5137344;27;20473;-64
2022/12/24 10:55:06;;;;;;;7.65;4.70;;;;;;;13.76;45.02;96218.16;5137242;27;20047;-63
2022/12/24 10:57:38;;;;;;;3.03;2.70;;;;;;;13.73;44.23;96213.06;5137006;27;20051;-64
2022/12/24 11:00:18;;;;;;;4.82;3.05;;;;;;;13.75;44.86;96211.19;5137089;27;20446;-62
2022/12/24 11:02:48;;;;;;;5.22;3.13;;;;;;;13.55;46.22;96210.53;5137074;27;20092;-62
2022/12/24 11:05:34;;;;;;;5.13;2.90;;;;;;;13.55;46.01;96212.31;5136783;27;20043;-64
2022/12/24 11:08:03;;;;;;;6.35;2.63;;;;;;;13.59;45.80;96201.53;5136779;27;20082;-64
2022/12/24 11:10:34;;;;;;;3.85;3.20;;;;;;;13.69;45.62;96201.88;5136769;27;20079;-63
2022/12/24 11:13:22;;;;;;;5.30;3.05;;;;;;;13.75;45.32;96195.41;5136635;27;20556;-63
2022/12/24 11:16:04;;;;;;;4.00;3.13;;;;;;;13.84;46.63;96202.78;5136791;27;20047;-63
2022/12/24 11:18:33;;;;;;;4.25;2.90;;;;;;;13.84;45.44;96196.66;5136629;27;20488;-62
2022/12/24 11:21:01;;;;;;;3.30;2.72;;;;;;;13.77;45.04;96189.16;5136909;27;20090;-61
2022/12/24 11:23:33;;;;;;;4.40;3.67;;;;;;;13.88;45.69;96185.91;5136648;27;20048;-63
2022/12/24 11:26:04;;;;;;;4.47;3.42;;;;;;;13.99;46.12;96185.28;5136538;27;20055;-65
2022/12/24 11:28:33;;;;;;;;;;;;;;;14.01;45.87;96183.44;5136987;27;20044;-61
2022/12/24 11:31:05;;;;;;;4.28;3.15;;;;;;;14.05;45.96;96188.53;5136407;27;19971;-65
2022/12/24 11:33:47;;;;;;;3.50;1.98;;;;;;;14.05;45.29;96194.59;5136357;27;20043;-64
2022/12/24 11:36:21;;;;;;;2.95;2.35;;;;;;;14.13;44.16;96192.41;5136305;27;20039;-64
2022/12/24 11:38:57;;;;;;;4.45;2.80;;;;;;;14.23;44.54;96202.34;5135747;27;20553;-64
2022/12/24 11:41:27;;;;;;;12.30;3.78;;;;;;;14.24;44.51;96199.63;5136167;27;20043;-64
2022/12/24 11:44:05;;;;;;;4.05;2.70;;;;;;;14.26;44.10;96195.16;5135962;27;20130;-64
2022/12/24 11:46:38;;;;;;;4.78;2.90;;;;;;;14.23;44.49;96203.22;5136176;27;20043;-65
2022/12/24 11:49:25;;;;;;;8.25;2.90;;;;;;;14.17;44.92;96193.03;5136051;27;20575;-65
2022/12/24 11:52:21;;;;;;;4.15;2.90;;;;;;;14.11;44.88;96198.66;5136042;27;20131;-63
2022/12/24 11:55:15;;;;;;;3.80;2.97;;;;;;;14.11;44.40;96196.03;5128538;27;20043;-65
2022/12/24 11:57:53;;;;;;;3.80;3.28;;;;;;;14.13;44.72;96197.66;5132589;27;20043;-64
2022/12/24 12:00:23;;;;;;;3.30;2.88;;;;;;;14.18;44.81;96201.78;5135831;27;20051;-62
2022/12/24 12:02:52;;;;;;;5.80;3.20;;;;;;;14.16;44.84;96199.25;5135822;27;20549;-61